createdAt,value
2022-08-16T00:02:24.637Z,11.98
2022-08-16T00:04:51.856Z,12.55
2022-08-16T00:07:34.361Z,11.50
2022-08-16T00:10:02.577Z,11.85
2022-08-16T00:12:30.648Z,11.70
2022-08-16T00:15:02.015Z,11.38
2022-08-16T00:17:29.403Z,12.15
2022-08-16T00:20:16.715Z,11.73
2022-08-16T00:22:48.930Z,12.93
2022-08-16T00:25:21.298Z,13.13
2022-08-16T00:28:08.414Z,12.77
2022-08-16T00:30:39.487Z,12.68
2022-08-16T00:33:06.791Z,12.93
2022-08-16T00:35:36.446Z,13.10
2022-08-16T00:38:41.013Z,13.10
2022-08-16T00:40:54.079Z,12.38
2022-08-16T00:43:23.050Z,13.27
2022-08-16T00:46:22.285Z,13.25
2022-08-16T00:48:52.810Z,13.40
2022-08-16T00:51:22.603Z,14.38
2022-08-16T00:53:51.034Z,12.48
2022-08-16T00:56:58.504Z,13.00
2022-08-16T00:59:27.404Z,12.48
2022-08-16T01:01:55.183Z,11.80
2022-08-16T01:04:30.942Z,12.30
2022-08-16T01:07:02.303Z,12.23
2022-08-16T01:09:33.138Z,11.98
2022-08-16T01:12:10.794Z,13.30
2022-08-16T01:14:51.182Z,12.23
2022-08-16T01:17:20.909Z,13.10
2022-08-16T01:19:57.182Z,12.15
2022-08-16T01:22:50.218Z,13.63
2022-08-16T01:25:21.815Z,13.88
2022-08-16T01:27:52.615Z,12.68
2022-08-16T01:30:26.144Z,12.88
2022-08-16T01:33:01.454Z,12.13
2022-08-16T01:35:36.360Z,12.15
2022-08-16T01:38:19.775Z,12.50
2022-08-16T01:40:47.865Z,10.90
2022-08-16T01:43:15.255Z,11.35
2022-08-16T01:45:43.337Z,12.07
2022-08-16T01:48:20.031Z,11.90
2022-08-16T01:51:09.013Z,12.70
2022-08-16T01:53:35.452Z,10.85
2022-08-16T01:56:03.323Z,12.32
2022-08-16T01:58:30.433Z,12.60
2022-08-16T02:00:58.093Z,13.77
2022-08-16T02:03:27.697Z,11.45
2022-08-16T02:06:00.043Z,12.52
2022-08-16T02:08:33.401Z,12.70
2022-08-16T02:11:02.969Z,13.25
2022-08-16T02:13:32.838Z,12.38
2022-08-16T02:16:00.135Z,14.75
2022-08-16T02:18:31.703Z,14.60
2022-08-16T02:21:01.503Z,14.33
2022-08-16T02:23:31.651Z,15.75
2022-08-16T02:25:59.965Z,13.85
2022-08-16T02:28:28.077Z,14.05
2022-08-16T02:31:03.428Z,14.90
2022-08-16T02:33:43.897Z,14.65
2022-08-16T02:36:48.070Z,15.07
2022-08-16T02:39:04.798Z,14.55
2022-08-16T02:41:32.387Z,15.60
2022-08-16T02:44:07.633Z,13.85
2022-08-16T02:46:35.285Z,14.38
2022-08-16T02:49:03.050Z,14.00
2022-08-16T02:51:33.600Z,14.20
2022-08-16T02:54:03.240Z,14.57
2022-08-16T02:56:32.136Z,15.48
2022-08-16T02:59:00.760Z,15.63
2022-08-16T03:01:33.739Z,15.15
2022-08-16T03:04:29.143Z,15.75
2022-08-16T03:06:59.687Z,15.60
2022-08-16T03:09:32.512Z,12.18
2022-08-16T03:12:00.994Z,9.38
2022-08-16T03:14:29.641Z,9.18
2022-08-16T03:17:00.946Z,6.90
2022-08-16T03:19:47.443Z,5.97
2022-08-16T03:22:28.006Z,6.18
2022-08-16T03:25:01.190Z,6.22
2022-08-16T03:27:30.765Z,7.30
2022-08-16T03:29:58.798Z,8.15
2022-08-16T03:32:28.123Z,8.52
2022-08-16T03:34:57.212Z,7.95
2022-08-16T03:37:24.376Z,8.20
2022-08-16T03:39:56.213Z,8.70
2022-08-16T03:42:24.103Z,8.75
2022-08-16T03:44:51.455Z,9.95
2022-08-16T03:47:34.256Z,10.25
2022-08-16T03:50:02.972Z,11.52
2022-08-16T03:52:31.430Z,10.50
2022-08-16T03:54:59.802Z,10.73
2022-08-16T03:57:31.657Z,8.65
2022-08-16T04:00:20.718Z,7.28
2022-08-16T04:03:10.122Z,7.90
2022-08-16T04:05:44.066Z,8.95
2022-08-16T04:08:22.902Z,8.40
2022-08-16T04:10:58.425Z,8.30
2022-08-16T04:13:58.933Z,7.15
2022-08-16T04:16:26.708Z,7.13
2022-08-16T04:19:02.050Z,6.82
2022-08-16T04:21:32.049Z,8.25
2022-08-16T04:23:59.496Z,8.95
2022-08-16T04:26:30.962Z,9.23
2022-08-16T04:29:16.296Z,8.55
2022-08-16T04:31:56.219Z,9.75
2022-08-16T04:34:29.239Z,9.90
2022-08-16T04:37:01.267Z,9.93
2022-08-16T04:39:36.640Z,11.90
2022-08-16T04:42:15.383Z,10.25
2022-08-16T04:44:53.983Z,11.55
2022-08-16T04:47:31.698Z,12.23
2022-08-16T04:50:01.915Z,12.20
2022-08-16T04:52:33.468Z,12.48
2022-08-16T04:55:11.920Z,11.68
2022-08-16T04:57:41.632Z,12.70
2022-08-16T05:00:30.628Z,12.75
2022-08-16T05:03:07.019Z,12.77
2022-08-16T05:05:36.812Z,12.85
2022-08-16T05:08:28.986Z,12.48
2022-08-16T05:11:03.709Z,12.77
2022-08-16T05:13:41.073Z,13.60
2022-08-16T05:16:19.798Z,13.82
2022-08-16T05:18:49.958Z,13.38
2022-08-16T05:21:17.476Z,14.48
2022-08-16T05:23:55.842Z,15.63
2022-08-16T05:26:29.638Z,15.10
2022-08-16T05:28:58.001Z,15.45
2022-08-16T05:31:31.262Z,14.07
2022-08-16T05:34:00.212Z,15.02
2022-08-16T05:36:35.701Z,15.38
2022-08-16T05:39:10.350Z,15.05
2022-08-16T05:41:45.604Z,16.67
2022-08-16T05:44:23.532Z,17.02
2022-08-16T05:47:00.539Z,16.13
2022-08-16T05:49:38.641Z,15.75
2022-08-16T05:52:11.693Z,17.05
2022-08-16T05:54:46.861Z,16.40
2022-08-16T05:57:15.525Z,17.95
2022-08-16T05:59:42.932Z,17.23
2022-08-16T06:02:10.536Z,17.10
2022-08-16T06:04:42.373Z,17.52
2022-08-16T06:07:25.214Z,17.55
2022-08-16T06:09:59.866Z,18.42
2022-08-16T06:12:28.998Z,18.50
2022-08-16T06:14:58.925Z,19.50
2022-08-16T06:17:41.136Z,20.00
2022-08-16T06:20:13.534Z,18.80
2022-08-16T06:22:41.061Z,19.33
2022-08-16T06:25:13.103Z,20.25
2022-08-16T06:27:57.631Z,20.80
2022-08-16T06:30:28.666Z,19.95
2022-08-16T06:32:56.423Z,20.50
2022-08-16T06:35:24.539Z,20.25
2022-08-16T06:37:52.564Z,19.15
2022-08-16T06:40:19.945Z,19.88
2022-08-16T06:42:48.456Z,18.73
2022-08-16T06:45:16.754Z,19.75
2022-08-16T06:47:53.093Z,18.92
2022-08-16T06:50:28.645Z,19.35
2022-08-16T06:52:58.094Z,19.95
2022-08-16T06:55:38.112Z,20.05
2022-08-16T06:58:08.556Z,19.48
2022-08-16T07:00:43.054Z,20.30
2022-08-16T07:03:26.799Z,20.48
2022-08-16T07:05:58.844Z,20.20
2022-08-16T07:08:27.601Z,18.75
2022-08-16T07:10:58.299Z,19.63
2022-08-16T07:14:00.279Z,19.75
2022-08-16T07:16:15.470Z,20.00
2022-08-16T07:18:58.871Z,19.98
2022-08-16T07:21:45.826Z,19.15
2022-08-16T07:24:29.519Z,19.30
2022-08-16T07:26:57.491Z,19.05
2022-08-16T07:29:25.555Z,19.17
2022-08-16T07:31:53.925Z,19.52
2022-08-16T07:34:35.669Z,18.70
2022-08-16T07:37:08.340Z,19.52
2022-08-16T07:39:43.411Z,19.35
2022-08-16T07:42:26.086Z,18.70
2022-08-16T07:44:57.111Z,18.92
2022-08-16T07:47:31.609Z,19.20
2022-08-16T07:49:59.223Z,18.23
2022-08-16T07:52:29.984Z,19.20
2022-08-16T07:54:57.620Z,17.50
2022-08-16T07:57:25.065Z,18.33
2022-08-16T07:59:56.998Z,18.85
2022-08-16T08:02:30.228Z,18.85
2022-08-16T08:05:03.365Z,18.95
2022-08-16T08:07:32.587Z,18.77
2022-08-16T08:10:00.070Z,17.48
2022-08-16T08:12:43.848Z,18.15
2022-08-16T08:17:42.610Z,18.67
2022-08-16T08:20:13.586Z,18.35
2022-08-16T08:22:53.612Z,17.45
2022-08-16T08:25:54.811Z,17.02
2022-08-16T08:28:16.143Z,18.30
2022-08-16T08:30:52.200Z,16.95
2022-08-16T08:33:31.589Z,15.68
2022-08-16T08:36:02.898Z,17.23
2022-08-16T08:38:45.249Z,16.13
2022-08-16T08:41:15.548Z,15.68
2022-08-16T08:43:47.124Z,16.45
2022-08-16T08:46:21.306Z,15.70
2022-08-16T08:49:02.137Z,17.45
2022-08-16T08:51:35.916Z,16.70
2022-08-16T08:54:06.789Z,16.63
2022-08-16T08:56:36.532Z,16.27
2022-08-16T08:59:13.502Z,16.15
2022-08-16T09:01:56.971Z,15.43
2022-08-16T09:04:27.353Z,15.45
2022-08-16T09:06:58.521Z,15.15
2022-08-16T09:09:33.462Z,13.98
2022-08-16T09:14:34.327Z,14.35
2022-08-16T09:17:11.429Z,15.02
2022-08-16T09:19:44.702Z,14.48
2022-08-16T09:22:21.037Z,14.77
2022-08-16T09:24:52.683Z,14.00
2022-08-16T09:27:25.412Z,15.50
2022-08-16T09:30:00.683Z,15.00
2022-08-16T09:32:31.059Z,14.18
2022-08-16T09:35:00.771Z,12.93
2022-08-16T09:37:36.755Z,13.23
2022-08-16T09:40:33.025Z,15.95
2022-08-16T09:42:59.127Z,14.52
2022-08-16T09:45:31.173Z,13.98
2022-08-16T09:47:58.987Z,14.98
2022-08-16T09:50:37.103Z,15.55
2022-08-16T09:53:14.729Z,12.05
2022-08-16T09:55:44.628Z,13.55
2022-08-16T09:58:37.537Z,15.68
2022-08-16T10:01:00.825Z,13.10
2022-08-16T10:03:30.547Z,11.80
2022-08-16T10:05:58.137Z,12.65
2022-08-16T10:08:27.917Z,14.90
2022-08-16T10:11:14.426Z,14.70
2022-08-16T10:13:51.187Z,15.45
2022-08-16T10:16:21.768Z,14.93
2022-08-16T10:19:00.676Z,13.82
2022-08-16T10:21:32.727Z,14.48
2022-08-16T10:24:03.362Z,13.52
2022-08-16T10:27:17.256Z,11.10
2022-08-16T10:29:22.396Z,12.48
2022-08-16T10:31:53.688Z,11.40
2022-08-16T10:34:31.517Z,11.63
2022-08-16T10:36:59.900Z,12.50
2022-08-16T10:39:40.871Z,10.00
2022-08-16T10:42:09.184Z,10.90
2022-08-16T10:44:36.836Z,11.15
2022-08-16T10:47:09.271Z,11.90
2022-08-16T10:49:39.023Z,12.80
2022-08-16T10:52:18.051Z,13.20
2022-08-16T10:57:34.963Z,12.27
2022-08-16T11:00:06.741Z,12.10
2022-08-16T11:03:42.284Z,13.10
2022-08-16T11:08:35.581Z,13.25
2022-08-16T11:11:12.778Z,13.20
2022-08-16T11:14:06.043Z,13.10
2022-08-16T11:19:30.274Z,13.55
2022-08-16T11:22:38.791Z,13.38
2022-08-16T11:24:45.524Z,15.52
2022-08-16T11:27:32.836Z,13.88
2022-08-16T11:30:04.245Z,16.08
2022-08-16T11:32:37.333Z,14.85
2022-08-16T11:35:10.681Z,12.63
2022-08-16T11:40:32.397Z,12.30
2022-08-16T11:43:04.638Z,13.60
2022-08-16T11:45:33.836Z,13.63
2022-08-16T11:48:03.245Z,12.88
2022-08-16T11:50:33.310Z,12.95
2022-08-16T11:53:04.866Z,12.77
2022-08-16T11:55:32.677Z,12.82
2022-08-16T11:58:00.352Z,13.05
2022-08-16T12:00:50.321Z,12.57
2022-08-16T12:03:36.728Z,10.93
2022-08-16T12:06:10.984Z,12.73
2022-08-16T12:08:52.729Z,13.38
2022-08-16T12:11:19.871Z,13.75
2022-08-16T12:13:49.987Z,11.18
2022-08-16T12:16:22.287Z,11.25
2022-08-16T12:18:52.225Z,10.98
2022-08-16T12:21:22.521Z,11.77
2022-08-16T12:23:50.379Z,11.30
2022-08-16T12:26:18.858Z,10.88
2022-08-16T12:28:54.500Z,11.63
2022-08-16T12:31:23.612Z,10.65
2022-08-16T12:33:54.276Z,9.98
2022-08-16T12:36:29.723Z,10.70
2022-08-16T12:41:34.886Z,10.32
2022-08-16T12:44:06.824Z,10.82
2022-08-16T12:46:36.720Z,10.90
2022-08-16T12:49:08.926Z,12.23
2022-08-16T12:51:58.926Z,10.55
2022-08-16T12:54:25.077Z,13.07
2022-08-16T12:56:52.587Z,14.30
2022-08-16T12:59:23.527Z,12.43
2022-08-16T13:01:58.352Z,13.35
2022-08-16T13:04:26.807Z,14.23
2022-08-16T13:06:57.252Z,14.93
2022-08-16T13:09:26.098Z,15.00
2022-08-16T13:12:16.138Z,14.15
2022-08-16T13:14:44.567Z,15.70
2022-08-16T13:17:18.560Z,15.23
2022-08-16T13:22:34.773Z,17.30
2022-08-16T13:25:02.282Z,15.98
2022-08-16T13:28:15.035Z,15.02
2022-08-16T13:30:37.144Z,15.88
2022-08-16T13:33:12.533Z,16.00
2022-08-16T13:35:46.110Z,12.43
2022-08-16T13:38:26.084Z,14.25
2022-08-16T13:40:58.938Z,15.73
2022-08-16T13:45:58.721Z,13.02
2022-08-16T13:48:43.354Z,14.75
2022-08-16T13:51:17.527Z,11.32
2022-08-16T13:53:59.038Z,13.13
2022-08-16T13:56:34.499Z,12.90
2022-08-16T13:59:19.230Z,9.25
2022-08-16T14:01:55.352Z,9.00
2022-08-16T14:04:35.292Z,7.20
2022-08-16T14:07:04.820Z,6.65
2022-08-16T14:09:33.726Z,6.90
2022-08-16T14:12:09.887Z,6.88
2022-08-16T14:14:45.240Z,8.35
2022-08-16T14:17:14.235Z,8.60
2022-08-16T14:19:44.984Z,7.47
2022-08-16T14:22:30.679Z,7.43
2022-08-16T14:24:59.745Z,8.38
2022-08-16T14:27:28.632Z,8.85
2022-08-16T14:30:01.229Z,7.45
2022-08-16T14:32:33.937Z,9.40
2022-08-16T14:35:07.860Z,9.10
2022-08-16T14:37:37.387Z,9.15
2022-08-16T14:40:12.573Z,11.38
2022-08-16T14:42:41.527Z,10.23
2022-08-16T14:45:13.722Z,9.65
2022-08-16T14:47:43.712Z,9.68
2022-08-16T14:50:16.207Z,10.05
2022-08-16T14:52:55.915Z,9.20
2022-08-16T14:55:28.894Z,11.10
2022-08-16T14:57:56.788Z,9.75
2022-08-16T15:00:33.022Z,9.77
2022-08-16T15:03:02.181Z,9.80
2022-08-16T15:08:01.792Z,11.80
2022-08-16T15:10:31.990Z,9.75
2022-08-16T15:13:01.119Z,10.60
2022-08-16T15:15:31.743Z,10.38
2022-08-16T15:18:02.461Z,8.85
2022-08-16T15:20:34.072Z,10.05
2022-08-16T15:23:02.393Z,9.93
2022-08-16T15:25:35.150Z,9.40
2022-08-16T15:28:04.776Z,8.85
2022-08-16T15:30:47.801Z,9.07
2022-08-16T15:33:25.798Z,9.35
2022-08-16T15:35:55.359Z,9.48
2022-08-16T15:38:54.668Z,9.88
2022-08-16T15:41:13.357Z,9.07
2022-08-16T15:43:40.649Z,8.73
2022-08-16T15:46:54.013Z,7.47
2022-08-16T15:49:12.144Z,8.43
2022-08-16T15:51:39.649Z,6.93
2022-08-16T15:54:29.387Z,7.07
2022-08-16T15:57:11.522Z,7.22
2022-08-16T15:59:48.885Z,7.18
2022-08-16T16:02:29.323Z,7.60
2022-08-16T16:05:01.532Z,7.20
2022-08-16T16:07:30.204Z,6.25
2022-08-16T16:09:58.930Z,5.93
2022-08-16T16:12:50.825Z,5.03
2022-08-16T16:15:18.808Z,6.18
2022-08-16T16:17:51.259Z,5.22
2022-08-16T16:20:24.550Z,5.20
2022-08-16T16:23:02.540Z,6.00
2022-08-16T16:25:30.713Z,5.93
2022-08-16T16:27:59.806Z,6.05
2022-08-16T16:30:33.143Z,6.75
2022-08-16T16:33:20.554Z,7.45
2022-08-16T16:35:54.973Z,7.38
2022-08-16T16:38:24.112Z,6.72
2022-08-16T16:41:01.688Z,5.68
2022-08-16T16:43:32.010Z,5.55
2022-08-16T16:46:00.713Z,6.18
2022-08-16T16:48:34.472Z,6.80
2022-08-16T16:51:09.728Z,5.93
2022-08-16T16:53:44.783Z,7.65
2022-08-16T16:56:19.399Z,7.05
2022-08-16T16:59:01.038Z,6.95
2022-08-16T17:01:41.247Z,5.57
2022-08-16T17:04:23.985Z,5.28
2022-08-16T17:06:58.625Z,5.57
2022-08-16T17:09:27.879Z,5.30
2022-08-16T17:11:55.907Z,5.03
2022-08-16T17:14:31.858Z,4.95
2022-08-16T17:16:59.672Z,4.93
2022-08-16T17:19:31.781Z,4.18
2022-08-16T17:21:59.668Z,4.22
2022-08-16T17:24:31.171Z,4.43
2022-08-16T17:27:06.778Z,4.47
2022-08-16T17:29:42.869Z,4.65
2022-08-16T17:32:46.575Z,4.45
2022-08-16T17:35:03.013Z,8.45
2022-08-16T17:37:48.812Z,5.50
2022-08-16T17:40:40.288Z,7.10
2022-08-16T17:43:19.148Z,7.57
2022-08-16T17:45:50.591Z,7.53
2022-08-16T17:48:18.219Z,7.65
2022-08-16T17:50:46.084Z,9.65
2022-08-16T17:53:16.046Z,8.10
2022-08-16T17:55:46.703Z,7.30
2022-08-16T17:58:22.311Z,8.15
2022-08-16T18:00:52.176Z,7.40
2022-08-16T18:04:03.264Z,7.65
2022-08-16T18:06:13.051Z,7.00
2022-08-16T18:08:43.494Z,7.30
2022-08-16T18:11:12.752Z,8.15
2022-08-16T18:13:43.460Z,7.63
2022-08-16T18:16:11.303Z,8.00
2022-08-16T18:18:38.685Z,8.25
2022-08-16T18:21:24.632Z,9.07
2022-08-16T18:23:51.719Z,9.07
2022-08-16T18:26:18.880Z,9.48
2022-08-16T18:28:45.977Z,10.65
2022-08-16T18:31:13.123Z,8.80
2022-08-16T18:33:43.770Z,9.38
2022-08-16T18:36:20.643Z,9.20
2022-08-16T18:38:49.828Z,10.75
2022-08-16T18:41:17.717Z,11.27
2022-08-16T18:43:54.666Z,14.00
2022-08-16T18:46:32.293Z,12.82
2022-08-16T18:48:59.912Z,13.63
2022-08-16T18:51:30.526Z,12.38
2022-08-16T18:53:58.635Z,12.77
2022-08-16T18:56:55.824Z,13.23
2022-08-16T18:59:14.056Z,13.18
2022-08-16T19:01:43.633Z,14.30
2022-08-16T19:04:54.878Z,13.77
2022-08-16T19:06:59.929Z,11.75
2022-08-16T19:09:27.048Z,13.57
2022-08-16T19:11:54.139Z,13.93
2022-08-16T19:14:29.221Z,15.02
2022-08-16T19:16:59.047Z,14.10
2022-08-16T19:19:26.105Z,13.02
2022-08-16T19:21:53.453Z,13.38
2022-08-16T19:24:20.534Z,14.75
2022-08-16T19:26:49.365Z,15.07
2022-08-16T19:29:16.464Z,15.18
2022-08-16T19:31:44.635Z,14.75
2022-08-16T19:34:13.549Z,14.27
2022-08-16T19:36:40.883Z,15.82
2022-08-16T19:39:16.482Z,14.60
2022-08-16T19:41:53.172Z,15.55
2022-08-16T19:44:21.416Z,16.98
2022-08-16T19:46:49.238Z,17.08
2022-08-16T19:49:17.147Z,18.50
2022-08-16T19:51:45.348Z,20.45
2022-08-16T19:54:12.713Z,23.48
2022-08-16T19:56:39.943Z,24.70
2022-08-16T19:59:40.108Z,26.88
2022-08-16T20:01:54.361Z,28.98
2022-08-16T20:04:22.487Z,28.75
2022-08-16T20:06:49.772Z,29.70
2022-08-16T20:09:16.939Z,29.92
2022-08-16T20:11:45.453Z,29.60
2022-08-16T20:14:24.854Z,31.13
2022-08-16T20:16:54.745Z,30.55
2022-08-16T20:19:21.885Z,32.10
2022-08-16T20:21:49.705Z,28.92
2022-08-16T20:24:33.614Z,28.33
2022-08-16T20:27:01.750Z,27.23
2022-08-16T20:29:29.552Z,30.33
2022-08-16T20:31:56.747Z,30.80
2022-08-16T20:34:23.856Z,29.85
2022-08-16T20:36:51.079Z,28.65
2022-08-16T20:39:20.750Z,28.38
2022-08-16T20:41:48.361Z,28.40
2022-08-16T20:44:15.814Z,27.23
2022-08-16T20:46:50.372Z,23.98
2022-08-16T20:49:17.573Z,23.35
2022-08-16T20:51:50.493Z,22.92
2022-08-16T20:54:18.541Z,23.05
2022-08-16T20:56:45.833Z,22.35
2022-08-16T20:59:12.861Z,23.35
2022-08-16T21:01:46.713Z,21.80
2022-08-16T21:04:18.853Z,19.85
2022-08-16T21:06:54.085Z,19.45
2022-08-16T21:09:31.478Z,22.23
2022-08-16T21:12:00.915Z,22.90
2022-08-16T21:14:29.091Z,22.20
2022-08-16T21:16:56.435Z,24.38
2022-08-16T21:19:23.609Z,24.85
2022-08-16T21:21:53.423Z,29.10
2022-08-16T21:24:20.690Z,26.25
2022-08-16T21:26:56.103Z,32.13
2022-08-16T21:29:24.907Z,32.40
2022-08-16T21:31:53.629Z,33.28
2022-08-16T21:34:25.832Z,33.58
2022-08-16T21:36:55.607Z,32.92
2022-08-16T21:39:22.723Z,36.45
2022-08-16T21:41:51.991Z,36.38
2022-08-16T21:44:22.091Z,35.88
2022-08-16T21:46:59.661Z,37.80
2022-08-16T21:49:26.844Z,38.20
2022-08-16T21:51:54.284Z,38.10
2022-08-16T21:54:24.064Z,37.28
2022-08-16T21:56:51.595Z,38.30
2022-08-16T21:59:18.708Z,36.72
2022-08-16T22:01:46.778Z,36.17
2022-08-16T22:04:38.161Z,35.92
2022-08-16T22:07:01.864Z,32.55
2022-08-16T22:09:29.212Z,33.15
2022-08-16T22:11:56.486Z,34.55
2022-08-16T22:14:23.578Z,33.55
2022-08-16T22:16:50.730Z,33.50
2022-08-16T22:19:18.314Z,34.92
2022-08-16T22:21:45.476Z,38.78
2022-08-16T22:24:12.723Z,35.33
2022-08-16T22:26:43.369Z,36.55
2022-08-16T22:29:12.827Z,36.65
2022-08-16T22:31:41.533Z,35.30
2022-08-16T22:34:08.945Z,35.30
2022-08-16T22:36:36.530Z,35.90
2022-08-16T22:39:06.016Z,36.70
2022-08-16T22:41:34.466Z,35.85
2022-08-16T22:44:02.501Z,35.25
2022-08-16T22:46:30.475Z,35.55
2022-08-16T22:48:57.829Z,36.05
2022-08-16T22:51:26.752Z,35.90
2022-08-16T22:53:54.393Z,36.40
2022-08-16T22:56:21.763Z,36.78
2022-08-16T22:58:49.416Z,37.58
2022-08-16T23:01:17.739Z,37.95
2022-08-16T23:03:45.689Z,37.95
2022-08-16T23:06:13.667Z,38.15
2022-08-16T23:08:41.758Z,36.55
2022-08-16T23:11:10.620Z,31.05
2022-08-16T23:13:38.285Z,33.60
2022-08-16T23:16:21.358Z,36.67
2022-08-16T23:18:49.404Z,37.72
2022-08-16T23:21:17.930Z,36.38
2022-08-16T23:23:46.732Z,36.47
2022-08-16T23:26:46.316Z,38.17
2022-08-16T23:29:04.445Z,37.33
2022-08-16T23:31:32.443Z,38.50
2022-08-16T23:34:00.131Z,38.97
2022-08-16T23:36:27.663Z,38.33
2022-08-16T23:38:54.900Z,36.47
2022-08-16T23:41:22.580Z,37.97
2022-08-16T23:43:49.736Z,37.97
2022-08-16T23:46:17.909Z,37.25
2022-08-16T23:49:58.303Z,38.22
2022-08-16T23:51:32.615Z,38.28
2022-08-16T23:54:00.509Z,38.15
2022-08-16T23:56:27.615Z,37.97
2022-08-16T23:59:02.466Z,36.55
